Bangui, Central African Republic
Current Conditions -  °F | °C
As of 10:00 PM on Saturday 22 Nov 2014 (Local Time) from FEFF Reporting Station
Clear Clear  
Wind Chill: 72°   Ceiling: Unl
Heat Index: 72°   Visibility: 6mi
Dew Point: 70°   Wind: 1mph
Humidity: 94%   Direction: NA
Pressure: 29.94"   Gusts: NA
Location:  4.36°N, 18.56°E
Report Text: FEFF 222100Z VRB01KT CAVOK 22/21 Q1014 NOSIG
Loading
Personal Weather Stations






























Interactive Weather Map New forecast layout! Learn more

10-Day Weather Forecast

Advertisements
Track Severe Weather on mobile